Time;durP1;ratioP1;P1;durP2;ratioP2;P2;SDS_P1;SDS_P2;PMS_P1;PMS_P2;Temp;Humidity;BMP_temperature;BMP_pressure;BME280_temperature;BME280_humidity;BME280_pressure;Samples;Min_cycle;Max_cycle;Signal;HPM_P1;HPM_P2
2022/09/26 00:00:52;;;;;;;1.50;1.50;;;;;;;;;;5016857;28;20236;-52
2022/09/26 00:03:18;;;;;;;2.30;2.20;;;;;;;;;;5021527;28;20220;-52
2022/09/26 00:05:44;;;;;;;1.70;1.70;;;;;;;;;;5015864;28;20645;-53
2022/09/26 00:08:10;;;;;;;1.60;1.60;;;;;;;;;;4977627;28;20233;-55
2022/09/26 00:10:36;;;;;;;2.00;1.90;;;;;;;;;;5021405;28;20231;-54
2022/09/26 00:13:02;;;;;;;1.93;1.83;;;;;;;;;;4993899;28;20235;-53
2022/09/26 00:15:28;;;;;;;1.53;1.53;;;;;;;;;;5013797;28;20224;-52
2022/09/26 00:17:54;;;;;;;1.90;1.80;;;;;;;;;;5009356;28;20261;-53
2022/09/26 00:20:20;;;;;;;1.93;1.83;;;;;;;;;;5017228;28;20234;-51
2022/09/26 00:22:45;;;;;;;1.47;1.47;;;;;;;;;;5016199;28;20224;-53
2022/09/26 00:25:11;;;;;;;1.50;1.50;;;;;;;;;;5021681;28;20220;-53
2022/09/26 00:27:37;;;;;;;1.70;1.70;;;;;;;;;;5016986;28;20224;-52
2022/09/26 00:30:04;;;;;;;1.60;1.60;;;;;;;;;;5025587;28;20732;-51
2022/09/26 00:32:30;;;;;;;1.40;1.40;;;;;;;;;;5029734;28;20221;-53
2022/09/26 00:34:56;;;;;;;1.50;1.50;;;;;;;;;;5026129;28;20599;-52
2022/09/26 00:37:22;;;;;;;1.60;1.60;;;;;;;;;;5014271;28;20228;-52
2022/09/26 00:39:48;;;;;;;1.50;1.50;;;;;;;;;;5005928;28;20225;-51
2022/09/26 00:42:14;;;;;;;1.50;1.50;;;;;;;;;;5007991;28;20282;-53
2022/09/26 00:44:47;;;;;;;1.50;1.50;;;;;;;;;;5012625;28;20226;-52
2022/09/26 00:47:20;;;;;;;1.73;1.70;;;;;;;;;;5005567;28;20649;-52
2022/09/26 00:49:46;;;;;;;1.60;1.60;;;;;;;;;;5004708;28;20229;-52
2022/09/26 00:52:16;;;;;;;2.27;2.17;;;;;;;;;;5016231;28;20223;-52
2022/09/26 00:54:44;;;;;;;2.00;1.90;;;;;;;;;;5009168;28;20229;-53
2022/09/26 00:57:10;;;;;;;1.70;1.70;;;;;;;;;;5007046;28;20244;-54
2022/09/26 00:59:42;;;;;;;1.53;1.53;;;;;;;;;;4994031;28;20225;-53
2022/09/26 01:02:08;;;;;;;1.87;1.77;;;;;;;;;;4991428;28;20214;-52
2022/09/26 01:04:35;;;;;;;1.67;1.67;;;;;;;;;;5003710;28;20254;-54
2022/09/26 01:07:01;;;;;;;1.40;1.40;;;;;;;;;;4994140;28;20509;-52
2022/09/26 01:09:27;;;;;;;1.60;1.60;;;;;;;;;;5000238;28;20653;-52
2022/09/26 01:11:53;;;;;;;1.70;1.70;;;;;;;;;;4972624;28;20225;-52
2022/09/26 01:14:20;;;;;;;1.60;1.60;;;;;;;;;;4975881;28;20605;-52
2022/09/26 01:16:47;;;;;;;1.43;1.43;;;;;;;;;;4999744;28;20228;-52
2022/09/26 01:19:18;;;;;;;1.60;1.60;;;;;;;;;;5010325;28;20712;-52
2022/09/26 01:21:54;;;;;;;1.67;1.67;;;;;;;;;;5009894;28;20220;-51
2022/09/26 01:24:29;;;;;;;1.60;1.60;;;;;;;;;;5005735;28;20887;-51
2022/09/26 01:27:18;;;;;;;1.90;1.80;;;;;;;;;;5014534;28;20775;-52
2022/09/26 01:29:50;;;;;;;1.97;1.87;;;;;;;;;;5000022;28;20687;-53
2022/09/26 01:35:32;;;;;;;1.50;1.50;;;;;;;;;;5013943;28;20322;-52
2022/09/26 01:38:01;;;;;;;1.30;1.30;;;;;;;;;;4988376;28;20608;-53
2022/09/26 01:40:31;;;;;;;1.47;1.47;;;;;;;;;;5001739;28;20221;-52
2022/09/26 01:43:16;;;;;;;1.30;1.30;;;;;;;;;;5006875;28;20244;-52
2022/09/26 01:45:44;;;;;;;1.60;1.60;;;;;;;;;;5007116;28;20217;-53
2022/09/26 01:48:17;;;;;;;1.77;1.70;;;;;;;;;;4996708;28;20225;-53
2022/09/26 01:50:45;;;;;;;1.67;1.67;;;;;;;;;;4990561;28;20223;-53
2022/09/26 01:53:11;;;;;;;1.50;1.50;;;;;;;;;;4987362;28;20224;-52
2022/09/26 01:55:38;;;;;;;1.80;1.70;;;;;;;;;;5006797;28;20272;-53
2022/09/26 01:58:13;;;;;;;1.60;1.60;;;;;;;;;;5000916;28;20750;-53
2022/09/26 02:00:40;;;;;;;1.77;1.70;;;;;;;;;;4997313;28;20224;-53
2022/09/26 02:03:06;;;;;;;1.60;1.60;;;;;;;;;;4991622;28;20232;-53
2022/09/26 02:05:32;;;;;;;1.90;1.80;;;;;;;;;;4998809;28;20743;-52
2022/09/26 02:08:00;;;;;;;2.00;1.90;;;;;;;;;;5008434;28;20701;-52
2022/09/26 02:10:27;;;;;;;1.70;1.70;;;;;;;;;;4999594;28;20221;-54
2022/09/26 02:12:55;;;;;;;1.50;1.50;;;;;;;;;;4990174;28;20694;-53
2022/09/26 02:15:20;;;;;;;1.57;1.57;;;;;;;;;;4977246;28;20466;-54
2022/09/26 02:17:52;;;;;;;1.40;1.40;;;;;;;;;;5011222;28;20234;-54
2022/09/26 02:20:19;;;;;;;1.60;1.60;;;;;;;;;;4988418;28;20714;-52
2022/09/26 02:22:45;;;;;;;1.70;1.70;;;;;;;;;;4960110;28;21313;-54
2022/09/26 02:25:11;;;;;;;1.73;1.70;;;;;;;;;;5000241;28;20354;-52
2022/09/26 02:27:37;;;;;;;1.80;1.70;;;;;;;;;;4999042;28;20378;-53
2022/09/26 02:30:03;;;;;;;1.67;1.67;;;;;;;;;;4982629;28;20245;-53
2022/09/26 02:32:30;;;;;;;1.60;1.60;;;;;;;;;;4981714;28;20223;-51
2022/09/26 02:34:56;;;;;;;1.83;1.73;;;;;;;;;;5003406;28;20762;-54
2022/09/26 02:37:22;;;;;;;1.40;1.40;;;;;;;;;;5002221;28;20236;-52
2022/09/26 02:39:48;;;;;;;1.50;1.50;;;;;;;;;;5006270;28;20743;-53
2022/09/26 02:42:20;;;;;;;1.40;1.40;;;;;;;;;;5007470;28;20725;-51
2022/09/26 02:44:49;;;;;;;1.50;1.50;;;;;;;;;;5013196;28;20231;-52
2022/09/26 02:47:41;;;;;;;1.60;1.60;;;;;;;;;;5001836;28;20222;-53
2022/09/26 02:50:07;;;;;;;1.50;1.50;;;;;;;;;;5032019;28;20358;-53
2022/09/26 02:52:36;;;;;;;1.60;1.60;;;;;;;;;;5023916;28;20943;-51
2022/09/26 02:55:18;;;;;;;1.60;1.60;;;;;;;;;;5017125;28;20232;-52
2022/09/26 02:58:04;;;;;;;1.73;1.70;;;;;;;;;;5018781;28;20719;-54
2022/09/26 03:00:40;;;;;;;1.70;1.70;;;;;;;;;;5024803;28;20246;-51
2022/09/26 03:03:24;;;;;;;2.20;2.10;;;;;;;;;;5026676;28;20771;-52
2022/09/26 03:05:51;;;;;;;1.90;1.80;;;;;;;;;;5028208;28;20856;-52
2022/09/26 03:08:17;;;;;;;1.93;1.83;;;;;;;;;;5020359;28;20259;-53
2022/09/26 03:10:43;;;;;;;1.67;1.67;;;;;;;;;;5029542;28;20224;-52
2022/09/26 03:13:10;;;;;;;1.90;1.80;;;;;;;;;;5017191;28;20209;-52
2022/09/26 03:15:36;;;;;;;1.57;1.57;;;;;;;;;;4997375;28;20227;-53
2022/09/26 03:18:03;;;;;;;1.70;1.67;;;;;;;;;;5018023;28;20231;-51
2022/09/26 03:20:29;;;;;;;1.67;1.67;;;;;;;;;;5027532;28;20228;-52
2022/09/26 03:22:55;;;;;;;1.90;1.80;;;;;;;;;;5025750;28;20227;-52
2022/09/26 03:25:23;;;;;;;1.73;1.70;;;;;;;;;;5028271;28;20263;-52
2022/09/26 03:27:49;;;;;;;2.10;2.00;;;;;;;;;;5007270;28;20259;-53
2022/09/26 03:30:15;;;;;;;1.60;1.60;;;;;;;;;;4993798;28;20232;-54
2022/09/26 03:32:41;;;;;;;1.60;1.60;;;;;;;;;;5017173;28;20254;-51
2022/09/26 03:35:07;;;;;;;1.50;1.50;;;;;;;;;;5012516;28;20890;-54
2022/09/26 03:37:36;;;;;;;1.67;1.67;;;;;;;;;;5011386;28;20253;-53
2022/09/26 03:40:05;;;;;;;1.90;1.80;;;;;;;;;;5027997;28;20346;-53
2022/09/26 03:42:34;;;;;;;1.90;1.80;;;;;;;;;;5011368;28;20726;-53
2022/09/26 03:45:00;;;;;;;1.93;1.83;;;;;;;;;;5025805;28;20220;-55
2022/09/26 03:47:26;;;;;;;1.57;1.57;;;;;;;;;;5014435;28;20965;-53
2022/09/26 03:49:52;;;;;;;1.93;1.83;;;;;;;;;;5005717;28;20690;-53
2022/09/26 03:52:18;;;;;;;1.90;1.80;;;;;;;;;;5017887;28;20280;-52
2022/09/26 03:54:44;;;;;;;2.00;1.90;;;;;;;;;;5007895;28;20677;-53
2022/09/26 03:57:13;;;;;;;1.60;1.60;;;;;;;;;;5001633;28;20709;-53
2022/09/26 03:59:39;;;;;;;2.10;2.00;;;;;;;;;;5012586;28;20235;-53
2022/09/26 04:02:05;;;;;;;2.10;2.00;;;;;;;;;;5001328;28;20228;-54
2022/09/26 04:04:32;;;;;;;1.60;1.60;;;;;;;;;;5021927;28;20225;-52
2022/09/26 04:06:58;;;;;;;2.03;1.93;;;;;;;;;;5020972;28;20225;-52
2022/09/26 04:09:24;;;;;;;1.50;1.50;;;;;;;;;;4996748;28;20807;-54
2022/09/26 04:11:50;;;;;;;2.13;2.03;;;;;;;;;;5005692;28;20774;-53
2022/09/26 04:14:17;;;;;;;1.70;1.70;;;;;;;;;;4996512;28;20225;-51
2022/09/26 04:16:43;;;;;;;2.00;1.90;;;;;;;;;;5009419;28;20246;-52
2022/09/26 04:19:10;;;;;;;1.90;1.80;;;;;;;;;;5012527;28;20229;-52
2022/09/26 04:21:39;;;;;;;2.10;2.00;;;;;;;;;;5005721;28;20216;-54
2022/09/26 04:24:05;;;;;;;1.90;1.80;;;;;;;;;;5016231;28;20294;-54
2022/09/26 04:26:31;;;;;;;1.50;1.50;;;;;;;;;;5008247;28;20227;-51
2022/09/26 04:28:57;;;;;;;1.90;1.80;;;;;;;;;;5022381;28;20598;-52
2022/09/26 04:31:23;;;;;;;1.50;1.50;;;;;;;;;;5020926;28;20248;-51
2022/09/26 04:33:49;;;;;;;1.80;1.70;;;;;;;;;;5029254;28;20251;-54
2022/09/26 04:36:16;;;;;;;1.90;1.80;;;;;;;;;;5031864;28;20241;-55
2022/09/26 04:38:41;;;;;;;1.80;1.70;;;;;;;;;;5044590;28;20239;-55
2022/09/26 04:41:09;;;;;;;1.83;1.73;;;;;;;;;;5045741;28;20277;-55
2022/09/26 04:43:35;;;;;;;2.10;2.00;;;;;;;;;;5023332;28;20224;-55
2022/09/26 04:46:01;;;;;;;1.60;1.60;;;;;;;;;;5034638;28;20235;-55
2022/09/26 04:48:27;;;;;;;1.50;1.50;;;;;;;;;;5042110;28;20399;-55
2022/09/26 04:50:53;;;;;;;2.00;1.90;;;;;;;;;;5045434;28;20228;-55
2022/09/26 04:53:19;;;;;;;1.90;1.80;;;;;;;;;;5031182;28;20222;-55
2022/09/26 04:55:45;;;;;;;2.30;2.20;;;;;;;;;;5024450;28;20234;-55
2022/09/26 04:58:12;;;;;;;1.70;1.70;;;;;;;;;;5044985;28;20342;-55
2022/09/26 05:00:44;;;;;;;2.07;1.97;;;;;;;;;;5025942;28;20280;-54
2022/09/26 05:03:12;;;;;;;2.20;2.10;;;;;;;;;;5012748;28;20222;-55
2022/09/26 05:05:39;;;;;;;2.10;2.00;;;;;;;;;;5046108;28;20224;-55
2022/09/26 05:08:05;;;;;;;2.30;2.20;;;;;;;;;;5019615;28;20676;-55
2022/09/26 05:10:31;;;;;;;2.27;2.17;;;;;;;;;;5017787;28;20221;-55
2022/09/26 05:13:02;;;;;;;2.13;2.03;;;;;;;;;;5029876;28;21041;-55
2022/09/26 05:15:28;;;;;;;2.07;1.97;;;;;;;;;;5039600;28;20223;-55
2022/09/26 05:18:00;;;;;;;2.23;2.13;;;;;;;;;;5020645;28;20239;-55
2022/09/26 05:20:30;;;;;;;1.97;1.87;;;;;;;;;;5021659;28;20236;-55
2022/09/26 05:22:59;;;;;;;2.10;2.00;;;;;;;;;;5022563;28;20233;-55
2022/09/26 05:28:10;;;;;;;1.83;1.73;;;;;;;;;;5025326;28;20285;-55
2022/09/26 05:30:36;;;;;;;2.00;1.90;;;;;;;;;;5038573;28;20223;-55
2022/09/26 05:33:02;;;;;;;1.70;1.70;;;;;;;;;;5037443;28;20597;-55
2022/09/26 05:35:28;;;;;;;1.83;1.73;;;;;;;;;;5050260;28;20232;-55
2022/09/26 05:38:00;;;;;;;2.10;2.00;;;;;;;;;;5046600;28;20271;-55
2022/09/26 05:43:11;;;;;;;1.90;1.80;;;;;;;;;;5035413;28;20242;-55
2022/09/26 05:45:37;;;;;;;2.10;2.00;;;;;;;;;;5040827;28;20224;-55
2022/09/26 05:48:03;;;;;;;1.63;1.63;;;;;;;;;;5029346;28;20808;-55
2022/09/26 05:50:29;;;;;;;2.00;1.90;;;;;;;;;;5055329;28;20222;-55
2022/09/26 05:52:58;;;;;;;1.60;1.60;;;;;;;;;;5035941;28;20228;-55
2022/09/26 05:55:25;;;;;;;2.00;1.90;;;;;;;;;;5028249;28;20254;-56
2022/09/26 05:57:57;;;;;;;2.00;1.90;;;;;;;;;;5040853;28;20246;-56
2022/09/26 06:00:23;;;;;;;2.20;2.10;;;;;;;;;;5053378;28;20224;-55
2022/09/26 06:02:58;;;;;;;2.20;2.10;;;;;;;;;;5023828;28;20219;-56
2022/09/26 06:05:24;;;;;;;2.10;2.00;;;;;;;;;;5054040;28;20225;-55
2022/09/26 06:07:51;;;;;;;2.00;1.90;;;;;;;;;;5048167;28;20270;-56
2022/09/26 06:10:17;;;;;;;2.10;2.00;;;;;;;;;;5034204;28;20702;-56
2022/09/26 06:12:43;;;;;;;2.20;2.10;;;;;;;;;;5016306;28;20281;-55
2022/09/26 06:15:09;;;;;;;2.10;2.00;;;;;;;;;;5036644;28;20219;-55
2022/09/26 06:17:35;;;;;;;2.03;1.93;;;;;;;;;;5035070;28;20219;-56
2022/09/26 06:20:01;;;;;;;1.90;1.80;;;;;;;;;;5034827;28;20228;-55
2022/09/26 06:22:27;;;;;;;1.97;1.87;;;;;;;;;;5019665;28;20234;-56
2022/09/26 06:24:53;;;;;;;2.33;2.23;;;;;;;;;;5030581;28;20225;-55
2022/09/26 06:27:21;;;;;;;2.20;2.10;;;;;;;;;;5023842;28;20313;-55
2022/09/26 06:29:47;;;;;;;1.90;1.80;;;;;;;;;;5033399;28;20254;-56
2022/09/26 06:32:13;;;;;;;1.90;1.80;;;;;;;;;;5020236;28;20303;-56
2022/09/26 06:34:39;;;;;;;2.10;2.00;;;;;;;;;;5029106;28;20232;-55
2022/09/26 06:37:05;;;;;;;2.10;2.00;;;;;;;;;;5030132;28;20239;-55
2022/09/26 06:39:34;;;;;;;1.60;1.60;;;;;;;;;;5010216;28;22253;-55
2022/09/26 06:42:04;;;;;;;2.00;1.90;;;;;;;;;;5022640;28;20354;-55
2022/09/26 06:44:30;;;;;;;1.80;1.70;;;;;;;;;;5016927;28;20301;-56
2022/09/26 06:46:59;;;;;;;1.90;1.80;;;;;;;;;;5032383;28;20227;-55
2022/09/26 06:49:25;;;;;;;2.07;1.97;;;;;;;;;;5040443;28;20225;-55
2022/09/26 06:51:51;;;;;;;1.80;1.70;;;;;;;;;;5028711;28;20363;-55
2022/09/26 06:54:17;;;;;;;1.60;1.60;;;;;;;;;;5017839;28;20668;-55
2022/09/26 06:56:43;;;;;;;1.50;1.50;;;;;;;;;;5021811;28;22036;-55
2022/09/26 06:59:09;;;;;;;1.80;1.70;;;;;;;;;;5032104;28;20265;-55
2022/09/26 07:01:35;;;;;;;1.80;1.70;;;;;;;;;;5027007;28;20669;-55
2022/09/26 07:04:01;;;;;;;2.00;1.90;;;;;;;;;;5034661;28;20762;-55
2022/09/26 07:06:27;;;;;;;1.90;1.80;;;;;;;;;;5029929;28;20733;-55
2022/09/26 07:08:53;;;;;;;2.00;1.90;;;;;;;;;;5032836;28;20481;-55
2022/09/26 07:11:19;;;;;;;1.97;1.87;;;;;;;;;;5033755;28;20246;-55
2022/09/26 07:13:45;;;;;;;1.90;1.80;;;;;;;;;;5038393;28;20211;-55
2022/09/26 07:16:12;;;;;;;2.03;1.93;;;;;;;;;;5043367;28;21117;-55
2022/09/26 07:18:38;;;;;;;1.80;1.70;;;;;;;;;;5022783;28;20685;-55
2022/09/26 07:21:07;;;;;;;1.80;1.70;;;;;;;;;;5017051;28;20346;-55
2022/09/26 07:23:33;;;;;;;1.90;1.80;;;;;;;;;;5016376;28;21093;-55
2022/09/26 07:25:59;;;;;;;1.90;1.80;;;;;;;;;;5038242;28;20229;-56
2022/09/26 07:28:26;;;;;;;1.90;1.80;;;;;;;;;;5046115;28;20230;-55
2022/09/26 07:30:59;;;;;;;1.90;1.80;;;;;;;;;;5019588;28;20235;-55
2022/09/26 07:33:25;;;;;;;1.90;1.80;;;;;;;;;;5019999;28;20223;-56
2022/09/26 07:35:51;;;;;;;1.60;1.60;;;;;;;;;;5026360;28;20270;-55
2022/09/26 07:38:17;;;;;;;1.80;1.70;;;;;;;;;;5028472;28;20231;-55
2022/09/26 07:40:43;;;;;;;1.60;1.60;;;;;;;;;;5015212;28;21236;-55
2022/09/26 07:43:12;;;;;;;1.50;1.50;;;;;;;;;;5035259;28;20299;-55
2022/09/26 07:51:10;;;;;;;1.90;1.80;;;;;;;;;;5034700;28;20230;-56
2022/09/26 07:53:37;;;;;;;2.00;1.90;;;;;;;;;;5026118;28;20277;-55
2022/09/26 07:56:09;;;;;;;2.10;2.00;;;;;;;;;;5023484;28;20229;-55
2022/09/26 07:58:35;;;;;;;2.17;2.07;;;;;;;;;;5031538;28;20816;-55
2022/09/26 08:01:02;;;;;;;2.00;1.90;;;;;;;;;;5024184;28;20405;-55
2022/09/26 08:03:28;;;;;;;2.20;2.10;;;;;;;;;;5014490;28;20593;-55
2022/09/26 08:05:55;;;;;;;2.10;2.00;;;;;;;;;;5017365;28;20242;-55
2022/09/26 08:08:21;;;;;;;2.00;1.90;;;;;;;;;;5032392;28;20215;-55
2022/09/26 08:10:47;;;;;;;1.80;1.73;;;;;;;;;;5011750;28;20661;-55
2022/09/26 08:13:13;;;;;;;2.00;1.90;;;;;;;;;;5021872;28;20778;-55
2022/09/26 08:15:39;;;;;;;1.60;1.60;;;;;;;;;;5030037;28;20219;-56
2022/09/26 08:18:05;;;;;;;1.70;1.70;;;;;;;;;;5014459;28;20290;-55
2022/09/26 08:20:32;;;;;;;1.77;1.70;;;;;;;;;;5034510;28;20227;-55
2022/09/26 08:22:58;;;;;;;2.10;2.00;;;;;;;;;;5039712;28;20252;-55
2022/09/26 08:25:24;;;;;;;1.87;1.77;;;;;;;;;;5031589;28;20661;-56
2022/09/26 08:27:52;;;;;;;1.60;1.60;;;;;;;;;;5033150;28;20227;-55
2022/09/26 08:30:17;;;;;;;1.70;1.70;;;;;;;;;;5038976;28;20260;-55
2022/09/26 08:32:51;;;;;;;1.80;1.70;;;;;;;;;;5043266;28;20359;-56
2022/09/26 08:35:17;;;;;;;2.10;2.00;;;;;;;;;;5018908;28;20224;-55
2022/09/26 08:37:43;;;;;;;1.93;1.83;;;;;;;;;;5039111;28;20243;-55
2022/09/26 08:40:09;;;;;;;2.10;2.00;;;;;;;;;;5024692;28;20310;-55
2022/09/26 08:42:39;;;;;;;2.00;1.90;;;;;;;;;;5027668;28;20275;-55
2022/09/26 08:46:30;;;;;;;1.70;1.70;;;;;;;;;;5024395;28;20224;-55
2022/09/26 08:48:03;;;;;;;2.07;1.97;;;;;;;;;;5004828;28;20229;-55
2022/09/26 08:50:33;;;;;;;1.80;1.70;;;;;;;;;;5017722;28;20221;-56
2022/09/26 08:53:01;;;;;;;2.00;1.90;;;;;;;;;;5030108;28;20604;-55
2022/09/26 08:55:32;;;;;;;1.73;1.70;;;;;;;;;;5026764;28;20236;-55
2022/09/26 08:58:00;;;;;;;2.10;2.00;;;;;;;;;;5009466;28;20324;-55
2022/09/26 09:00:27;;;;;;;1.90;1.80;;;;;;;;;;5045068;28;20960;-55
2022/09/26 09:03:05;;;;;;;1.60;1.60;;;;;;;;;;5028590;28;20238;-55
2022/09/26 09:05:33;;;;;;;1.80;1.70;;;;;;;;;;5027174;28;20229;-55
2022/09/26 09:07:59;;;;;;;2.10;2.00;;;;;;;;;;5032684;28;20216;-55
2022/09/26 09:10:30;;;;;;;1.93;1.83;;;;;;;;;;5019580;28;20307;-55
2022/09/26 09:13:05;;;;;;;1.80;1.70;;;;;;;;;;5007737;28;20992;-55
2022/09/26 09:15:41;;;;;;;1.93;1.83;;;;;;;;;;4999984;28;20219;-55
2022/09/26 09:18:18;;;;;;;2.17;2.07;;;;;;;;;;4995095;28;20314;-55
2022/09/26 09:20:50;;;;;;;2.00;1.90;;;;;;;;;;5018124;28;20606;-55
2022/09/26 09:23:22;;;;;;;1.83;1.73;;;;;;;;;;5027251;28;20223;-55
2022/09/26 09:25:55;;;;;;;1.70;1.70;;;;;;;;;;5011546;28;20224;-55
2022/09/26 09:28:27;;;;;;;1.50;1.50;;;;;;;;;;5002274;28;20715;-56
2022/09/26 09:30:57;;;;;;;1.70;1.70;;;;;;;;;;5000259;28;20236;-55
2022/09/26 09:33:23;;;;;;;2.00;1.90;;;;;;;;;;5018534;28;20274;-55
2022/09/26 09:35:51;;;;;;;1.70;1.70;;;;;;;;;;5017145;28;20232;-55
2022/09/26 09:38:18;;;;;;;1.90;1.80;;;;;;;;;;5027751;28;20232;-55
2022/09/26 09:41:03;;;;;;;1.90;1.80;;;;;;;;;;5028790;28;20326;-55
2022/09/26 09:43:48;;;;;;;2.13;2.03;;;;;;;;;;5033541;28;20282;-55
2022/09/26 09:46:15;;;;;;;1.90;1.80;;;;;;;;;;5017781;28;20217;-55
2022/09/26 09:48:41;;;;;;;2.00;1.90;;;;;;;;;;4999643;28;20225;-56
2022/09/26 09:51:13;;;;;;;2.00;1.90;;;;;;;;;;5004535;28;20541;-56
2022/09/26 09:54:05;;;;;;;2.00;1.90;;;;;;;;;;5020203;28;20223;-56
2022/09/26 09:56:47;;;;;;;1.70;1.70;;;;;;;;;;4983974;28;20552;-55
2022/09/26 09:59:32;;;;;;;1.60;1.60;;;;;;;;;;5017040;28;20277;-55
2022/09/26 10:02:13;;;;;;;1.80;1.70;;;;;;;;;;5019548;28;21049;-56
2022/09/26 10:04:55;;;;;;;1.60;1.60;;;;;;;;;;4998653;28;20677;-55
2022/09/26 10:07:21;;;;;;;1.90;1.80;;;;;;;;;;5012237;28;20228;-55
2022/09/26 10:09:50;;;;;;;1.70;1.70;;;;;;;;;;5016882;28;21055;-55
2022/09/26 10:12:17;;;;;;;1.60;1.60;;;;;;;;;;5014533;28;20226;-55
2022/09/26 10:14:46;;;;;;;1.90;1.80;;;;;;;;;;5003871;28;20258;-55
2022/09/26 10:17:14;;;;;;;1.50;1.50;;;;;;;;;;5014596;28;20341;-55
2022/09/26 10:19:41;;;;;;;1.50;1.50;;;;;;;;;;4997058;28;20915;-56
2022/09/26 10:22:10;;;;;;;1.83;1.73;;;;;;;;;;5010455;28;21086;-55
2022/09/26 10:24:39;;;;;;;1.57;1.57;;;;;;;;;;5000102;28;20280;-56
2022/09/26 10:27:13;;;;;;;1.90;1.80;;;;;;;;;;4987661;28;20225;-55
2022/09/26 10:29:39;;;;;;;2.03;1.93;;;;;;;;;;5007652;28;20232;-56
2022/09/26 10:32:05;;;;;;;1.90;1.80;;;;;;;;;;5004023;28;20596;-56
2022/09/26 10:34:31;;;;;;;1.90;1.80;;;;;;;;;;5010398;28;20797;-55
2022/09/26 10:36:58;;;;;;;1.60;1.60;;;;;;;;;;5017158;28;20951;-56
2022/09/26 10:42:13;;;;;;;1.80;1.70;;;;;;;;;;5014503;28;20674;-56
2022/09/26 10:44:41;;;;;;;1.90;1.80;;;;;;;;;;5003852;28;20231;-56
2022/09/26 10:47:11;;;;;;;1.50;1.50;;;;;;;;;;5011951;28;20218;-55
2022/09/26 10:49:43;;;;;;;1.60;1.60;;;;;;;;;;5001328;28;20591;-56
2022/09/26 10:52:11;;;;;;;1.40;1.40;;;;;;;;;;5013457;28;20280;-56
2022/09/26 10:54:42;;;;;;;1.70;1.70;;;;;;;;;;5013042;28;21055;-56
2022/09/26 10:57:10;;;;;;;1.40;1.40;;;;;;;;;;5026423;28;20295;-55
2022/09/26 10:59:38;;;;;;;1.57;1.57;;;;;;;;;;4998535;28;20240;-56
2022/09/26 11:02:04;;;;;;;1.93;1.83;;;;;;;;;;5007443;28;20392;-55
2022/09/26 11:07:40;;;;;;;1.60;1.60;;;;;;;;;;4997366;28;21349;-55
2022/09/26 11:10:08;;;;;;;1.60;1.60;;;;;;;;;;5016568;28;20257;-56
2022/09/26 11:12:38;;;;;;;1.50;1.50;;;;;;;;;;5018576;28;20301;-55
2022/09/26 11:15:07;;;;;;;1.40;1.40;;;;;;;;;;5020396;28;20224;-56
2022/09/26 11:17:43;;;;;;;1.60;1.60;;;;;;;;;;5009474;28;20252;-56
2022/09/26 11:20:10;;;;;;;1.80;1.70;;;;;;;;;;5012366;28;20228;-56
2022/09/26 11:22:37;;;;;;;1.77;1.70;;;;;;;;;;5019097;28;20743;-56
2022/09/26 11:25:23;;;;;;;1.90;1.80;;;;;;;;;;5015372;28;20306;-55
2022/09/26 11:27:50;;;;;;;1.80;1.70;;;;;;;;;;4969663;28;20235;-56
2022/09/26 11:30:20;;;;;;;1.90;1.80;;;;;;;;;;5002157;28;20225;-55
2022/09/26 11:32:54;;;;;;;1.60;1.60;;;;;;;;;;5017212;28;20223;-55
2022/09/26 11:35:28;;;;;;;1.90;1.80;;;;;;;;;;4996809;28;20264;-56
2022/09/26 11:38:04;;;;;;;1.70;1.70;;;;;;;;;;4999055;28;20702;-56
2022/09/26 11:40:33;;;;;;;2.00;1.90;;;;;;;;;;5002707;28;20229;-55
2022/09/26 11:43:17;;;;;;;1.80;1.70;;;;;;;;;;5010724;28;20245;-56
2022/09/26 11:46:03;;;;;;;1.90;1.80;;;;;;;;;;4996463;28;20268;-56
2022/09/26 11:48:29;;;;;;;2.00;1.90;;;;;;;;;;5004280;28;20230;-55
2022/09/26 11:51:01;;;;;;;1.90;1.80;;;;;;;;;;5008380;28;20213;-55
2022/09/26 11:53:47;;;;;;;1.73;1.70;;;;;;;;;;5006166;28;20225;-55
2022/09/26 11:56:37;;;;;;;1.90;1.80;;;;;;;;;;4990277;28;20232;-55
2022/09/26 11:59:06;;;;;;;2.10;2.00;;;;;;;;;;5005168;28;20249;-56
2022/09/26 12:01:40;;;;;;;1.80;1.70;;;;;;;;;;5022802;28;20233;-56
2022/09/26 12:04:06;;;;;;;1.80;1.70;;;;;;;;;;4982018;28;20232;-55
2022/09/26 12:06:41;;;;;;;1.80;1.70;;;;;;;;;;5017133;28;20224;-55
2022/09/26 12:09:40;;;;;;;2.50;2.40;;;;;;;;;;5030512;28;20232;-55
2022/09/26 12:12:08;;;;;;;1.90;1.80;;;;;;;;;;5000471;28;20263;-55
2022/09/26 12:14:44;;;;;;;1.90;1.80;;;;;;;;;;5015365;28;20248;-55
2022/09/26 12:17:33;;;;;;;1.80;1.70;;;;;;;;;;4999859;28;20684;-56
2022/09/26 12:19:59;;;;;;;1.60;1.60;;;;;;;;;;5020292;28;20273;-56
2022/09/26 12:22:50;;;;;;;2.10;2.00;;;;;;;;;;5010481;28;20309;-56
2022/09/26 12:25:17;;;;;;;2.10;2.00;;;;;;;;;;5001656;28;20236;-55
2022/09/26 12:28:05;;;;;;;1.70;1.70;;;;;;;;;;5026920;28;20315;-55
2022/09/26 12:30:47;;;;;;;2.00;1.90;;;;;;;;;;5010640;28;20249;-55
2022/09/26 12:33:20;;;;;;;1.90;1.80;;;;;;;;;;5000830;28;20765;-56
2022/09/26 12:35:49;;;;;;;1.70;1.70;;;;;;;;;;5036002;28;20274;-56
2022/09/26 12:38:31;;;;;;;1.70;1.70;;;;;;;;;;5028115;28;20231;-56
2022/09/26 12:40:57;;;;;;;1.50;1.50;;;;;;;;;;4967670;28;20314;-55
2022/09/26 12:43:30;;;;;;;1.90;1.80;;;;;;;;;;4989042;28;20228;-55
2022/09/26 12:45:59;;;;;;;2.00;1.90;;;;;;;;;;5031761;28;20235;-56
2022/09/26 12:48:30;;;;;;;1.50;1.50;;;;;;;;;;5005945;28;20228;-55
2022/09/26 12:50:55;;;;;;;1.50;1.50;;;;;;;;;;5003788;28;20724;-55
2022/09/26 12:53:51;;;;;;;1.90;1.80;;;;;;;;;;5012606;28;20230;-56
2022/09/26 12:56:36;;;;;;;1.40;1.40;;;;;;;;;;4955605;28;20321;-55
2022/09/26 12:59:17;;;;;;;1.93;1.83;;;;;;;;;;4985301;28;20241;-56
2022/09/26 13:01:43;;;;;;;1.90;1.80;;;;;;;;;;5011166;28;20228;-55
2022/09/26 13:04:16;;;;;;;2.00;1.90;;;;;;;;;;5007955;28;20225;-56
2022/09/26 13:06:54;;;;;;;1.60;1.60;;;;;;;;;;5005915;28;20251;-55
2022/09/26 13:09:39;;;;;;;1.40;1.40;;;;;;;;;;5001074;28;20224;-55
2022/09/26 13:12:08;;;;;;;1.50;1.50;;;;;;;;;;4999222;28;20260;-56
2022/09/26 13:14:54;;;;;;;1.50;1.50;;;;;;;;;;4981589;28;23356;-55
2022/09/26 13:17:24;;;;;;;1.60;1.60;;;;;;;;;;4974164;28;21769;-56
2022/09/26 13:19:54;;;;;;;1.70;1.70;;;;;;;;;;4989167;28;20240;-55
2022/09/26 13:22:26;;;;;;;1.40;1.40;;;;;;;;;;5002996;28;20224;-55
2022/09/26 13:24:56;;;;;;;1.40;1.40;;;;;;;;;;5004292;28;20228;-55
2022/09/26 13:27:25;;;;;;;1.40;1.40;;;;;;;;;;5018712;28;20241;-56
2022/09/26 13:29:57;;;;;;;1.60;1.60;;;;;;;;;;5006187;28;20689;-55
2022/09/26 13:32:26;;;;;;;1.30;1.30;;;;;;;;;;5006345;28;20307;-55
2022/09/26 13:35:00;;;;;;;1.90;1.80;;;;;;;;;;4987476;28;20221;-61
2022/09/26 13:37:46;;;;;;;1.90;1.80;;;;;;;;;;5003741;28;21005;-56
2022/09/26 13:40:20;;;;;;;1.50;1.50;;;;;;;;;;4984681;28;20235;-55
2022/09/26 13:43:09;;;;;;;1.60;1.60;;;;;;;;;;4981937;28;21024;-56
2022/09/26 13:45:43;;;;;;;1.90;1.80;;;;;;;;;;4975652;28;20241;-56
2022/09/26 13:48:29;;;;;;;1.87;1.77;;;;;;;;;;4967996;28;21364;-55
2022/09/26 13:50:55;;;;;;;1.67;1.67;;;;;;;;;;4981647;28;20909;-57
2022/09/26 13:53:31;;;;;;;1.40;1.40;;;;;;;;;;4984161;28;20814;-55
2022/09/26 13:56:18;;;;;;;1.30;1.30;;;;;;;;;;4973717;28;20260;-55
2022/09/26 13:58:44;;;;;;;1.40;1.40;;;;;;;;;;4997790;28;20237;-56
2022/09/26 14:01:23;;;;;;;1.30;1.30;;;;;;;;;;4994350;28;20232;-56
2022/09/26 14:03:50;;;;;;;1.40;1.40;;;;;;;;;;4970735;28;20230;-56
2022/09/26 14:06:25;;;;;;;1.30;1.30;;;;;;;;;;4990642;28;21028;-56
2022/09/26 14:11:50;;;;;;;1.60;1.60;;;;;;;;;;4980219;28;20244;-56
2022/09/26 14:14:20;;;;;;;1.50;1.50;;;;;;;;;;4971971;28;20225;-57
2022/09/26 14:16:50;;;;;;;1.27;1.27;;;;;;;;;;4967916;28;20228;-55
2022/09/26 14:19:35;;;;;;;1.50;1.50;;;;;;;;;;4982249;28;20231;-57
2022/09/26 14:22:01;;;;;;;1.30;1.30;;;;;;;;;;4986731;28;20251;-56
2022/09/26 14:24:40;;;;;;;1.40;1.40;;;;;;;;;;4994597;28;20222;-56
2022/09/26 14:27:09;;;;;;;1.77;1.70;;;;;;;;;;4998599;28;20226;-56
2022/09/26 14:29:38;;;;;;;1.80;1.70;;;;;;;;;;5001314;28;20236;-57
2022/09/26 14:32:06;;;;;;;1.50;1.50;;;;;;;;;;5007211;28;20212;-57
2022/09/26 14:34:46;;;;;;;1.50;1.50;;;;;;;;;;5004502;28;20228;-57
2022/09/26 14:37:23;;;;;;;1.40;1.40;;;;;;;;;;5003961;28;20277;-57
2022/09/26 14:39:59;;;;;;;1.70;1.60;;;;;;;;;;5031079;28;20337;-57
2022/09/26 14:42:30;;;;;;;1.40;1.40;;;;;;;;;;5020728;28;20234;-57
2022/09/26 14:45:00;;;;;;;1.63;1.63;;;;;;;;;;4996705;28;20690;-56
2022/09/26 14:47:27;;;;;;;1.63;1.63;;;;;;;;;;5003971;28;20235;-56
2022/09/26 14:50:04;;;;;;;1.53;1.53;;;;;;;;;;4979848;28;20231;-56
2022/09/26 14:52:30;;;;;;;1.50;1.50;;;;;;;;;;5016381;28;20809;-56
2022/09/26 14:54:57;;;;;;;1.40;1.40;;;;;;;;;;5013895;28;20847;-57
2022/09/26 14:57:24;;;;;;;1.20;1.20;;;;;;;;;;4992480;28;20249;-57
2022/09/26 14:59:50;;;;;;;1.50;1.50;;;;;;;;;;5013093;28;20314;-57
2022/09/26 15:02:19;;;;;;;1.60;1.60;;;;;;;;;;4992869;28;20785;-57
2022/09/26 15:04:46;;;;;;;1.40;1.40;;;;;;;;;;5028159;28;20306;-55
2022/09/26 15:07:15;;;;;;;1.33;1.33;;;;;;;;;;5028309;28;20663;-57
2022/09/26 15:09:44;;;;;;;1.80;1.70;;;;;;;;;;5006511;28;20232;-57
2022/09/26 15:12:13;;;;;;;1.67;1.67;;;;;;;;;;5003931;28;20243;-57
2022/09/26 15:14:42;;;;;;;1.50;1.50;;;;;;;;;;5026567;28;20304;-55
2022/09/26 15:17:11;;;;;;;1.53;1.53;;;;;;;;;;4994622;28;20229;-56
2022/09/26 15:19:41;;;;;;;1.60;1.60;;;;;;;;;;4978442;28;20233;-57
2022/09/26 15:22:12;;;;;;;2.07;1.97;;;;;;;;;;4995557;28;20350;-57